Search for airport 
image banner adimage banner adimage banner ad
image banner ad

N10 - Perkiomen Valley

Located in Collegeville, United States

ICAO - N10, IATA -

Data provided by Airmate  

General information

Coordinates: N40°12'15" W75°25'49"
Elevation is 277 feet MSL.
Magnetic variation is -12° East
View others Airports in Pennsylvania

Operational data

Special qualification required
Current time UTC:
Current local time:
Weather at : KPTW - Heritage Field ( 11 km )
METAR: KPTW 091354Z AUTO 25004KT 10SM OVC110 09/03 A3011 RMK AO2 SLP195 T00940028
View NOTAMs / SUP AIP / TFR affecting this airport [VIEW]
Communications frequencies: [VIEW]

Runways:

RWY identifierQFULength (ft)Width (ft)SurfaceLDA (ft)
0976°288040ASPH
27256°288040ASPH

Airport contact information

Address: Collegeville United States

Satellite view of N10